Time;durP1;ratioP1;P1;durP2;ratioP2;P2;SDS_P1;SDS_P2;PMS_P1;PMS_P2;Temp;Humidity;BMP_temperature;BMP_pressure;BME280_temperature;BME280_humidity;BME280_pressure;Samples;Min_cycle;Max_cycle;Signal;HPM_P1;HPM_P2
2022/03/16 00:00:21;;;;;;;60.45;28.63;;;7.30;99.90;;;;;;5053003;28;20101;-81
2022/03/16 00:02:48;;;;;;;63.40;26.80;;;6.90;99.90;;;;;;5049442;28;20049;-82
2022/03/16 00:05:15;;;;;;;65.90;28.92;;;6.90;99.90;;;;;;5035231;28;20037;-82
2022/03/16 00:07:41;;;;;;;59.85;30.23;;;6.90;99.90;;;;;;5053390;28;20056;-82
2022/03/16 00:10:08;;;;;;;63.00;29.63;;;6.80;99.90;;;;;;5070454;28;20152;-82
2022/03/16 00:12:37;;;;;;;63.53;29.95;;;6.80;99.90;;;;;;5069315;28;20494;-82
2022/03/16 00:15:04;;;;;;;62.58;30.02;;;6.70;99.90;;;;;;5054180;28;20040;-81
2022/03/16 00:17:30;;;;;;;55.50;27.90;;;6.70;99.90;;;;;;5049454;28;20585;-82
2022/03/16 00:19:56;;;;;;;63.65;29.30;;;6.60;99.90;;;;;;5052748;28;20122;-81
2022/03/16 00:22:21;;;;;;;60.92;29.38;;;6.50;99.90;;;;;;5032705;28;20056;-82
2022/03/16 00:24:47;;;;;;;59.95;28.90;;;6.60;99.90;;;;;;5049930;28;20037;-81
2022/03/16 00:27:13;;;;;;;60.53;27.98;;;6.60;99.90;;;;;;5061357;28;20048;-84
2022/03/16 00:29:39;;;;;;;50.85;26.48;;;6.30;99.90;;;;;;5070352;28;20052;-82
2022/03/16 00:32:05;;;;;;;53.33;27.45;;;6.40;99.90;;;;;;5070010;28;20055;-82
2022/03/16 00:34:31;;;;;;;61.00;28.65;;;6.30;99.90;;;;;;5053033;28;20490;-82
2022/03/16 00:36:57;;;;;;;67.93;29.90;;;6.50;99.90;;;;;;5042921;28;20045;-82
2022/03/16 00:39:23;;;;;;;64.32;29.40;;;6.20;99.90;;;;;;5040741;28;20059;-82
2022/03/16 00:41:49;;;;;;;66.20;30.52;;;6.20;99.90;;;;;;5031635;28;20052;-82
2022/03/16 00:44:14;;;;;;;63.75;29.10;;;6.30;99.90;;;;;;5031319;28;20044;-83
2022/03/16 00:46:41;;;;;;;58.78;28.27;;;6.30;99.90;;;;;;5041914;28;20143;-82
2022/03/16 00:49:06;;;;;;;62.45;27.45;;;6.30;99.90;;;;;;5082574;28;20044;-81
2022/03/16 00:51:32;;;;;;;61.28;28.42;;;6.80;99.90;;;;;;5069622;28;20056;-81
2022/03/16 00:53:58;;;;;;;63.42;28.92;;;6.20;99.90;;;;;;5059963;28;20056;-82
2022/03/16 00:56:24;;;;;;;66.43;31.00;;;6.20;99.90;;;;;;5032987;28;20053;-82
2022/03/16 00:58:49;;;;;;;79.82;32.53;;;6.70;99.90;;;;;;5049293;28;20102;-82
2022/03/16 01:01:15;;;;;;;67.60;30.30;;;6.30;99.90;;;;;;5016226;28;20106;-83
2022/03/16 01:03:41;;;;;;;66.93;29.48;;;6.20;99.90;;;;;;5051427;28;20127;-82
2022/03/16 01:06:15;;;;;;;77.38;32.00;;;6.60;99.90;;;;;;5053270;28;20466;-82
2022/03/16 01:08:44;;;;;;;78.05;32.45;;;6.20;99.90;;;;;;5054016;28;20053;-81
2022/03/16 01:11:14;;;;;;;72.03;32.70;;;6.20;99.90;;;;;;5041910;28;20053;-82
2022/03/16 01:13:41;;;;;;;69.88;30.92;;;6.50;99.90;;;;;;5048016;28;20467;-81
2022/03/16 01:16:07;;;;;;;74.70;31.40;;;6.10;99.90;;;;;;5049135;28;20048;-81
2022/03/16 01:18:33;;;;;;;71.07;30.65;;;6.50;99.90;;;;;;5049165;28;20041;-82
2022/03/16 01:20:58;;;;;;;62.85;28.75;;;6.30;99.90;;;;;;5049652;28;20060;-81
2022/03/16 01:23:24;;;;;;;62.13;28.15;;;6.10;99.90;;;;;;5031503;28;20045;-82
2022/03/16 01:25:50;;;;;;;59.35;27.05;;;5.90;99.90;;;;;;5032820;28;20133;-82
2022/03/16 01:28:18;;;;;;;52.88;25.70;;;5.90;99.90;;;;;;5048381;28;20072;-82
2022/03/16 01:30:43;;;;;;;262.95;28.23;;;5.80;99.90;;;;;;5031275;28;20101;-82
2022/03/16 01:33:09;;;;;;;64.72;20.00;;;5.70;99.90;;;;;;5048998;28;20045;-82
2022/03/16 01:35:35;;;;;;;83.22;19.50;;;5.50;99.90;;;;;;5031599;28;20102;-82
2022/03/16 01:38:00;;;;;;;115.25;24.92;;;5.30;99.90;;;;;;5048185;28;20055;-82
2022/03/16 01:40:26;;;;;;;115.70;26.30;;;5.70;99.90;;;;;;5068282;28;20052;-83
2022/03/16 01:42:52;;;;;;;268.55;28.83;;;5.00;99.90;;;;;;5067813;28;20044;-81
2022/03/16 01:45:18;;;;;;;275.48;26.17;;;5.00;99.90;;;;;;5051278;28;20045;-83
2022/03/16 01:47:43;;;;;;;485.38;27.75;;;5.50;99.90;;;;;;5060434;28;20037;-82
2022/03/16 01:50:10;;;;;;;315.60;18.88;;;5.20;99.90;;;;;;5045940;28;20509;-82
2022/03/16 01:52:36;;;;;;;;;;;4.70;99.90;;;;;;5043600;28;20048;-82
2022/03/16 01:55:05;;;;;;;84.50;15.38;;;4.50;99.90;;;;;;5048437;28;19920;-82
2022/03/16 01:57:36;;;;;;;81.03;20.52;;;4.40;99.90;;;;;;5047775;28;20118;-82
2022/03/16 02:00:06;;;;;;;228.35;23.00;;;4.30;99.90;;;;;;5034251;28;20092;-81
2022/03/16 02:02:33;;;;;;;139.88;18.33;;;4.20;99.90;;;;;;5066262;28;20497;-81
2022/03/16 02:04:59;;;;;;;176.43;20.13;;;4.30;99.90;;;;;;5050808;28;20059;-81
2022/03/16 02:07:25;;;;;;;98.57;19.33;;;4.20;99.90;;;;;;5049209;28;20068;-82
2022/03/16 02:09:53;;;;;;;81.53;22.05;;;4.20;99.90;;;;;;5048747;28;20520;-82
2022/03/16 02:12:19;;;;;;;46.53;22.45;;;4.20;99.90;;;;;;5064076;28;20053;-81
2022/03/16 02:14:44;;;;;;;50.58;22.83;;;4.20;99.90;;;;;;5052716;28;20071;-81
2022/03/16 02:17:10;;;;;;;53.90;25.58;;;4.20;99.90;;;;;;5051526;28;20561;-81
2022/03/16 02:19:36;;;;;;;55.53;26.30;;;4.40;99.90;;;;;;5051737;28;20036;-81
2022/03/16 02:22:04;;;;;;;47.88;22.95;;;4.30;99.90;;;;;;5045395;28;20049;-81
2022/03/16 02:24:29;;;;;;;266.35;30.55;;;4.40;99.90;;;;;;5046957;28;20052;-81
2022/03/16 02:26:58;;;;;;;54.13;23.23;;;4.80;99.90;;;;;;5048273;28;20051;-82
2022/03/16 02:29:24;;;;;;;50.78;23.67;;;4.40;99.90;;;;;;5031016;28;20095;-82
2022/03/16 02:31:50;;;;;;;64.15;27.80;;;4.40;99.90;;;;;;5031481;28;20624;-81
2022/03/16 02:34:15;;;;;;;49.67;24.27;;;4.70;99.90;;;;;;5057186;28;20056;-81
2022/03/16 02:36:41;;;;;;;57.67;26.48;;;4.50;99.90;;;;;;5031066;28;20049;-81
2022/03/16 02:39:07;;;;;;;56.33;24.73;;;4.50;99.90;;;;;;5063952;28;20047;-81
2022/03/16 02:41:33;;;;;;;50.25;23.33;;;4.70;99.90;;;;;;5063006;28;20049;-81
2022/03/16 02:43:59;;;;;;;56.70;26.23;;;4.60;99.90;;;;;;5030187;28;20060;-82
2022/03/16 02:46:24;;;;;;;48.63;24.60;;;5.10;99.90;;;;;;5048538;28;20050;-83
2022/03/16 02:48:51;;;;;;;46.67;21.90;;;4.60;99.90;;;;;;5033760;28;20045;-83
2022/03/16 02:51:19;;;;;;;43.97;20.77;;;4.60;99.90;;;;;;5018880;28;20087;-82
2022/03/16 02:53:46;;;;;;;54.42;26.60;;;4.50;99.90;;;;;;5060043;28;20041;-82
2022/03/16 02:56:11;;;;;;;54.42;24.70;;;4.50;99.90;;;;;;5054446;28;20053;-82
2022/03/16 02:58:37;;;;;;;56.90;22.48;;;4.50;99.90;;;;;;5049675;28;20043;-83
2022/03/16 03:01:03;;;;;;;49.92;23.92;;;4.50;99.90;;;;;;5035075;28;20052;-81
2022/03/16 03:03:29;;;;;;;61.58;24.00;;;4.50;99.90;;;;;;5034605;28;20137;-82
2022/03/16 03:05:55;;;;;;;52.88;23.48;;;4.50;99.90;;;;;;5037398;28;20052;-82
2022/03/16 03:08:21;;;;;;;;;;;5.10;99.90;;;;;;5023236;28;20387;-82
2022/03/16 03:10:48;;;;;;;48.85;22.45;;;4.80;99.90;;;;;;5068102;28;19927;-82
2022/03/16 03:13:14;;;;;;;52.30;25.63;;;4.60;99.90;;;;;;5053187;28;20127;-82
2022/03/16 03:15:41;;;;;;;52.65;23.55;;;4.80;99.90;;;;;;5054361;28;20182;-82
2022/03/16 03:18:07;;;;;;;62.22;26.73;;;4.50;99.90;;;;;;5047749;28;20052;-82
2022/03/16 03:20:33;;;;;;;56.17;25.10;;;4.60;99.90;;;;;;5034695;28;20513;-82
2022/03/16 03:22:58;;;;;;;54.67;25.70;;;4.50;99.90;;;;;;5051809;28;20060;-82
2022/03/16 03:25:24;;;;;;;58.85;26.27;;;4.50;99.90;;;;;;5070077;28;20047;-82
2022/03/16 03:27:50;;;;;;;60.30;26.17;;;5.10;99.90;;;;;;5037316;28;20570;-82
2022/03/16 03:30:15;;;;;;;59.58;25.13;;;4.50;99.90;;;;;;5038031;28;20071;-83
2022/03/16 03:32:41;;;;;;;58.40;24.70;;;4.60;99.90;;;;;;5043187;28;20052;-81
2022/03/16 03:35:08;;;;;;;66.40;25.52;;;4.60;99.90;;;;;;5051523;28;20048;-81
2022/03/16 03:37:33;;;;;;;;;;;4.60;99.90;;;;;;5050871;28;20052;-82
2022/03/16 03:39:59;;;;;;;56.63;23.63;;;4.60;99.90;;;;;;5050654;28;19927;-82
2022/03/16 03:42:25;;;;;;;55.38;24.73;;;4.90;99.90;;;;;;5038466;28;20063;-82
2022/03/16 03:44:51;;;;;;;53.88;24.63;;;4.60;99.90;;;;;;5030726;28;20501;-81
2022/03/16 03:47:16;;;;;;;49.05;23.60;;;4.60;99.90;;;;;;5050748;28;20406;-83
2022/03/16 03:49:43;;;;;;;50.97;23.90;;;5.20;99.90;;;;;;5040279;28;20048;-82
2022/03/16 03:52:09;;;;;;;55.47;23.92;;;4.70;99.90;;;;;;5070086;28;20063;-82
2022/03/16 03:54:35;;;;;;;57.22;25.48;;;4.80;99.90;;;;;;5053631;28;20048;-82
2022/03/16 03:57:02;;;;;;;51.95;24.23;;;4.60;99.90;;;;;;5052719;28;20095;-83
2022/03/16 03:59:27;;;;;;;52.72;23.75;;;4.50;99.90;;;;;;5037819;28;20045;-82
2022/03/16 04:01:53;;;;;;;50.80;24.05;;;5.10;99.90;;;;;;5060954;28;20041;-82
2022/03/16 04:04:19;;;;;;;56.05;25.63;;;4.50;99.90;;;;;;5044480;28;20047;-82
2022/03/16 04:06:45;;;;;;;58.15;26.10;;;4.50;99.90;;;;;;5066194;28;20057;-81
2022/03/16 04:09:11;;;;;;;54.28;24.50;;;4.50;99.90;;;;;;5050543;28;20126;-81
2022/03/16 04:11:37;;;;;;;59.58;26.73;;;4.70;99.90;;;;;;5033399;28;20045;-82
2022/03/16 04:14:03;;;;;;;58.42;26.55;;;4.90;99.90;;;;;;5050673;28;20433;-82
2022/03/16 04:16:29;;;;;;;;;;;5.30;99.90;;;;;;5051105;28;20048;-82
2022/03/16 04:18:55;;;;;;;58.15;25.77;;;4.40;99.90;;;;;;5050554;28;19927;-81
2022/03/16 04:21:21;;;;;;;53.45;26.60;;;4.40;99.90;;;;;;5034410;28;20128;-81
2022/03/16 04:23:47;;;;;;;53.47;26.77;;;4.40;99.90;;;;;;5044333;28;20040;-83
2022/03/16 04:26:13;;;;;;;59.13;26.98;;;4.60;99.90;;;;;;5054437;28;20135;-82
2022/03/16 04:28:39;;;;;;;49.60;25.60;;;5.10;99.90;;;;;;5067981;28;20128;-81
2022/03/16 04:31:04;;;;;;;60.97;25.90;;;5.20;99.90;;;;;;5053915;28;20132;-82
2022/03/16 04:33:31;;;;;;;52.85;25.70;;;5.00;99.90;;;;;;5053743;28;20041;-84
2022/03/16 04:35:57;;;;;;;56.38;26.50;;;4.90;99.90;;;;;;5053705;28;20052;-82
2022/03/16 04:38:22;;;;;;;58.03;25.60;;;4.30;99.90;;;;;;5053243;28;20105;-82
2022/03/16 04:40:48;;;;;;;60.72;25.40;;;4.20;99.90;;;;;;5046847;28;20101;-82
2022/03/16 04:43:14;;;;;;;55.67;24.73;;;4.80;99.90;;;;;;5033211;28;20398;-82
2022/03/16 04:45:40;;;;;;;53.70;24.92;;;4.20;99.90;;;;;;5049398;28;20048;-82
2022/03/16 04:48:09;;;;;;;56.97;26.38;;;4.20;99.90;;;;;;5033290;28;20049;-81
2022/03/16 04:50:36;;;;;;;56.67;24.20;;;4.20;99.90;;;;;;5034095;28;20041;-81
2022/03/16 04:53:02;;;;;;;;;;;4.10;99.90;;;;;;5070729;28;20407;-82
2022/03/16 04:55:28;;;;;;;54.28;24.17;;;4.80;99.90;;;;;;5056724;28;19931;-83
2022/03/16 04:57:53;;;;;;;59.33;26.60;;;4.10;99.90;;;;;;5049096;28;20049;-82
2022/03/16 05:00:19;;;;;;;52.92;25.42;;;4.40;99.90;;;;;;5017466;28;20099;-81
2022/03/16 05:02:45;;;;;;;57.42;25.00;;;4.50;99.90;;;;;;5049423;28;20388;-82
2022/03/16 05:05:11;;;;;;;54.70;26.88;;;4.10;99.90;;;;;;5000400;28;20478;-82
2022/03/16 05:07:38;;;;;;;59.33;26.05;;;4.00;99.90;;;;;;5037706;28;20059;-82
2022/03/16 05:10:05;;;;;;;56.58;26.55;;;4.70;99.90;;;;;;5069799;28;20051;-82
2022/03/16 05:12:42;;;;;;;54.72;25.60;;;4.00;99.90;;;;;;5052597;28;20060;-82
2022/03/16 05:15:12;;;;;;;50.63;25.25;;;4.40;99.90;;;;;;5036755;28;20130;-82
2022/03/16 05:17:38;;;;;;;55.85;25.70;;;4.00;99.90;;;;;;5067293;28;20490;-82
2022/03/16 05:20:06;;;;;;;52.28;24.98;;;4.90;99.90;;;;;;5049927;28;20048;-82
2022/03/16 05:22:40;;;;;;;50.65;24.58;;;4.00;99.90;;;;;;5049753;28;20394;-82
2022/03/16 05:25:06;;;;;;;48.70;23.65;;;3.90;99.90;;;;;;5049235;28;20049;-82
2022/03/16 05:27:32;;;;;;;49.38;23.98;;;3.80;99.90;;;;;;5048772;28;20053;-82
2022/03/16 05:29:57;;;;;;;48.25;23.58;;;4.00;99.90;;;;;;5049341;28;20529;-82
2022/03/16 05:32:23;;;;;;;45.13;21.65;;;3.80;99.90;;;;;;5051390;28;20059;-82
2022/03/16 05:34:49;;;;;;;41.05;21.40;;;3.70;99.90;;;;;;5016213;28;20083;-82
2022/03/16 05:37:14;;;;;;;48.33;22.70;;;4.50;99.90;;;;;;5055125;28;20051;-82
2022/03/16 05:39:40;;;;;;;46.22;23.02;;;4.30;99.90;;;;;;5048742;28;20045;-82
2022/03/16 05:42:07;;;;;;;54.00;24.27;;;3.50;99.90;;;;;;5032187;28;20045;-83
2022/03/16 05:44:33;;;;;;;46.58;24.17;;;3.50;99.90;;;;;;5033120;28;20450;-82
2022/03/16 05:46:59;;;;;;;58.83;24.83;;;3.70;99.90;;;;;;5014528;28;20090;-82
2022/03/16 05:49:28;;;;;;;51.22;24.13;;;3.50;99.90;;;;;;5031872;28;20056;-82
2022/03/16 05:51:54;;;;;;;52.20;23.33;;;4.10;99.90;;;;;;5031232;28;20780;-82
2022/03/16 05:54:19;;;;;;;54.40;24.48;;;4.10;99.90;;;;;;5031230;28;20045;-83
2022/03/16 05:56:45;;;;;;;49.13;23.20;;;3.50;99.90;;;;;;5065247;28;20508;-82
2022/03/16 05:59:11;;;;;;;51.67;23.60;;;3.80;99.90;;;;;;5052711;28;20040;-82
2022/03/16 06:01:37;;;;;;;48.80;24.23;;;3.60;99.90;;;;;;5067687;28;20044;-83
2022/03/16 06:04:03;;;;;;;51.13;23.90;;;3.60;99.90;;;;;;5035871;28;20040;-82
2022/03/16 06:06:30;;;;;;;50.65;23.75;;;3.60;99.90;;;;;;5052486;28;20066;-82
2022/03/16 06:08:57;;;;;;;47.47;23.92;;;3.60;99.90;;;;;;5039069;28;20053;-82
2022/03/16 06:11:24;;;;;;;55.53;24.58;;;3.60;99.90;;;;;;5049780;28;20126;-82
2022/03/16 06:13:50;;;;;;;50.58;23.17;;;3.60;99.90;;;;;;5048082;28;20052;-82
2022/03/16 06:16:16;;;;;;;55.53;25.23;;;3.60;99.90;;;;;;5049149;28;20045;-81
2022/03/16 06:18:41;;;;;;;57.15;24.40;;;3.60;99.90;;;;;;5032307;28;20102;-82
2022/03/16 06:21:07;;;;;;;48.67;24.42;;;3.60;99.90;;;;;;5035085;28;20102;-81
2022/03/16 06:23:34;;;;;;;51.65;24.05;;;3.70;99.90;;;;;;5035712;28;20524;-82
2022/03/16 06:26:01;;;;;;;49.85;23.38;;;3.70;99.90;;;;;;5035838;28;20049;-82
2022/03/16 06:28:27;;;;;;;49.28;24.92;;;3.70;99.90;;;;;;5048238;28;20052;-81
2022/03/16 06:30:52;;;;;;;48.75;24.23;;;3.80;99.90;;;;;;5072224;28;20056;-82
2022/03/16 06:33:18;;;;;;;49.40;24.90;;;3.80;99.90;;;;;;5056273;28;20512;-83
2022/03/16 06:35:44;;;;;;;50.97;23.67;;;3.80;99.90;;;;;;5072313;28;20055;-82
2022/03/16 06:38:11;;;;;;;58.40;26.40;;;4.40;99.90;;;;;;5072838;28;20048;-82
2022/03/16 06:40:37;;;;;;;58.03;26.45;;;3.90;99.90;;;;;;5055848;28;20520;-82
2022/03/16 06:43:03;;;;;;;63.50;28.38;;;3.90;99.90;;;;;;5071578;28;20040;-82
2022/03/16 06:45:30;;;;;;;68.28;31.55;;;4.00;99.90;;;;;;5054753;28;20052;-82
2022/03/16 06:47:58;;;;;;;75.18;30.88;;;4.10;99.90;;;;;;5055066;28;20135;-82
2022/03/16 06:50:37;;;;;;;76.63;33.55;;;4.10;99.90;;;;;;5070309;28;20052;-82
2022/03/16 06:53:03;;;;;;;69.78;34.20;;;4.20;99.90;;;;;;5002690;28;20124;-82
2022/03/16 06:55:29;;;;;;;77.40;33.97;;;4.20;99.90;;;;;;5035231;28;20174;-82
2022/03/16 06:57:55;;;;;;;67.28;32.45;;;4.30;99.90;;;;;;5051168;28;20048;-82
2022/03/16 07:00:21;;;;;;;69.97;30.42;;;4.30;99.90;;;;;;5059352;28;20044;-82
2022/03/16 07:02:54;;;;;;;59.60;29.08;;;4.40;99.90;;;;;;5054630;28;20048;-83
2022/03/16 07:05:23;;;;;;;63.78;29.77;;;4.50;99.90;;;;;;5055528;28;20037;-82
2022/03/16 07:07:49;;;;;;;49.97;24.58;;;4.80;99.90;;;;;;5070571;28;20053;-82
2022/03/16 07:10:15;;;;;;;52.70;26.45;;;5.10;99.90;;;;;;5058623;28;20052;-82
2022/03/16 07:12:41;;;;;;;49.50;25.23;;;4.60;99.90;;;;;;5051363;28;20053;-82
2022/03/16 07:15:07;;;;;;;50.33;25.25;;;4.70;99.90;;;;;;5051938;28;20056;-82
2022/03/16 07:17:33;;;;;;;;;;;4.70;99.90;;;;;;5035868;28;20477;-82
2022/03/16 07:19:59;;;;;;;44.60;22.08;;;4.80;99.90;;;;;;5018727;28;19942;-81
2022/03/16 07:22:24;;;;;;;46.50;23.83;;;4.80;99.90;;;;;;5035441;28;20073;-82
2022/03/16 07:24:50;;;;;;;45.03;22.23;;;5.50;99.90;;;;;;5054320;28;20041;-82
2022/03/16 07:27:16;;;;;;;42.20;22.20;;;4.90;99.90;;;;;;5054681;28;20044;-83
2022/03/16 07:29:41;;;;;;;41.80;24.42;;;5.40;99.90;;;;;;5054660;28;20076;-81
2022/03/16 07:32:07;;;;;;;45.58;24.67;;;5.10;99.90;;;;;;5053240;28;20047;-81
2022/03/16 07:34:33;;;;;;;45.38;24.63;;;5.10;99.90;;;;;;5054999;28;20505;-81
2022/03/16 07:36:59;;;;;;;43.38;22.67;;;5.10;99.90;;;;;;5068869;28;20056;-82
2022/03/16 07:39:24;;;;;;;51.08;25.48;;;5.50;99.90;;;;;;5043833;28;20067;-81
2022/03/16 07:41:50;;;;;;;54.15;28.65;;;5.30;99.90;;;;;;5070385;28;20052;-83
2022/03/16 07:44:16;;;;;;;47.90;26.55;;;5.40;99.90;;;;;;5059103;28;20135;-82
2022/03/16 07:46:42;;;;;;;46.67;26.15;;;5.50;99.90;;;;;;5042378;28;20071;-82
2022/03/16 07:49:07;;;;;;;50.60;27.52;;;5.60;99.90;;;;;;5050980;28;20087;-81
2022/03/16 07:51:33;;;;;;;57.72;29.67;;;5.70;99.90;;;;;;5034956;28;20084;-81
2022/03/16 07:53:59;;;;;;;52.45;27.25;;;6.10;99.90;;;;;;5033587;28;20166;-81
2022/03/16 07:56:25;;;;;;;47.08;26.55;;;5.80;99.90;;;;;;5051579;28;20099;-83
2022/03/16 07:58:51;;;;;;;43.53;24.92;;;6.00;99.90;;;;;;5033732;28;20539;-84
2022/03/16 08:01:17;;;;;;;;;;;5.90;99.90;;;;;;5034932;28;20106;-84
2022/03/16 08:03:43;;;;;;;47.10;25.60;;;6.00;99.90;;;;;;5062266;28;19927;-82
2022/03/16 08:06:08;;;;;;;46.10;25.05;;;6.00;99.90;;;;;;5052195;28;20048;-82
2022/03/16 08:08:39;;;;;;;43.88;24.73;;;6.10;99.90;;;;;;5033519;28;20559;-81
2022/03/16 08:11:06;;;;;;;45.60;24.20;;;6.10;99.90;;;;;;5050621;28;20068;-81
2022/03/16 08:13:32;;;;;;;38.58;22.08;;;6.10;99.90;;;;;;5050135;28;20107;-82
2022/03/16 08:15:58;;;;;;;44.63;24.42;;;6.20;99.90;;;;;;5033550;28;20628;-82
2022/03/16 08:18:24;;;;;;;44.08;24.08;;;6.20;99.90;;;;;;5051113;28;20057;-81
2022/03/16 08:20:49;;;;;;;41.47;22.55;;;6.30;99.90;;;;;;5039060;28;20490;-81
2022/03/16 08:23:15;;;;;;;42.78;22.42;;;6.20;99.90;;;;;;5048076;28;20053;-81
2022/03/16 08:25:41;;;;;;;43.75;24.85;;;6.30;99.90;;;;;;5036647;28;20131;-81
2022/03/16 08:28:07;;;;;;;42.53;23.52;;;6.40;99.90;;;;;;5052735;28;20056;-81
2022/03/16 08:30:34;;;;;;;44.05;24.27;;;6.40;99.90;;;;;;5070708;28;20048;-82
2022/03/16 08:33:01;;;;;;;43.97;23.42;;;6.50;99.90;;;;;;5069851;28;20048;-81
2022/03/16 08:35:27;;;;;;;45.58;23.95;;;6.60;99.90;;;;;;5070602;28;20048;-81
2022/03/16 08:37:53;;;;;;;43.22;21.95;;;6.70;99.90;;;;;;5051824;28;20041;-83
2022/03/16 08:40:19;;;;;;;46.03;22.42;;;6.80;99.90;;;;;;5052725;28;20517;-78
2022/03/16 08:42:45;;;;;;;44.22;23.60;;;7.10;99.90;;;;;;5041669;28;20045;-82
2022/03/16 08:45:10;;;;;;;43.90;22.92;;;7.00;99.90;;;;;;5052249;28;20047;-82
2022/03/16 08:47:37;;;;;;;44.15;24.02;;;7.00;99.90;;;;;;5053246;28;20170;-82
2022/03/16 08:50:03;;;;;;;48.50;25.00;;;7.10;99.90;;;;;;5069904;28;20044;-80
2022/03/16 08:52:29;;;;;;;43.50;23.08;;;7.30;99.90;;;;;;5058270;28;20059;-81
2022/03/16 08:54:55;;;;;;;47.22;22.38;;;7.40;99.90;;;;;;5052154;28;20117;-84
2022/03/16 08:57:22;;;;;;;43.60;19.45;;;7.50;99.90;;;;;;5050375;28;20045;-81
2022/03/16 08:59:48;;;;;;;37.47;21.00;;;7.60;99.90;;;;;;5055201;28;20490;-82
2022/03/16 09:02:14;;;;;;;38.55;21.27;;;7.70;99.90;;;;;;5045318;28;20826;-83
2022/03/16 09:04:40;;;;;;;34.03;18.02;;;7.80;99.90;;;;;;5054711;28;20128;-82
2022/03/16 09:07:06;;;;;;;35.40;18.98;;;7.80;99.90;;;;;;5042806;28;20405;-78
2022/03/16 09:09:33;;;;;;;35.20;17.67;;;8.00;99.90;;;;;;5042639;28;20056;-82
2022/03/16 09:11:59;;;;;;;38.50;19.17;;;8.00;99.90;;;;;;5058598;28;20053;-82
2022/03/16 09:14:25;;;;;;;36.78;17.33;;;8.10;99.90;;;;;;5024578;28;20052;-82
2022/03/16 09:16:51;;;;;;;30.15;16.60;;;8.20;99.90;;;;;;5048890;28;20047;-81
2022/03/16 09:19:20;;;;;;;34.83;17.80;;;8.20;99.90;;;;;;5052269;28;20216;-81
2022/03/16 09:21:49;;;;;;;29.73;15.40;;;8.20;99.90;;;;;;5065669;28;20045;-81
2022/03/16 09:24:18;;;;;;;31.33;16.17;;;8.30;99.90;;;;;;5040609;28;20417;-81
2022/03/16 09:26:45;;;;;;;35.28;17.23;;;8.40;99.90;;;;;;5051259;28;20037;-80
2022/03/16 09:29:10;;;;;;;;;;;8.50;99.90;;;;;;5068564;28;20127;-80
2022/03/16 09:31:40;;;;;;;30.33;14.30;;;8.50;99.90;;;;;;5052604;28;20011;-79
2022/03/16 09:34:07;;;;;;;26.02;14.15;;;8.70;99.90;;;;;;5068657;28;20051;-79
2022/03/16 09:36:45;;;;;;;28.75;14.35;;;8.80;99.90;;;;;;5063540;28;20148;-81
2022/03/16 09:39:11;;;;;;;24.98;13.80;;;8.90;99.90;;;;;;5031687;28;20060;-82
2022/03/16 09:41:37;;;;;;;29.60;14.05;;;9.10;99.90;;;;;;5049097;28;20052;-82
2022/03/16 09:44:05;;;;;;;26.52;14.00;;;9.10;99.90;;;;;;5031778;28;20398;-82
2022/03/16 09:46:33;;;;;;;25.60;12.73;;;9.30;99.90;;;;;;5054622;28;20485;-82
2022/03/16 09:49:00;;;;;;;25.95;13.13;;;9.40;99.90;;;;;;5054035;28;20056;-83
2022/03/16 09:51:29;;;;;;;23.67;14.00;;;9.40;99.90;;;;;;5059684;28;20045;-82
2022/03/16 09:53:54;;;;;;;25.85;13.95;;;9.50;99.90;;;;;;5048655;28;20088;-82
2022/03/16 09:56:20;;;;;;;25.00;13.25;;;9.60;99.90;;;;;;5051358;28;20049;-82
2022/03/16 09:58:46;;;;;;;24.75;13.23;;;9.80;99.90;;;;;;5035943;28;20041;-82
2022/03/16 10:01:12;;;;;;;24.15;13.27;;;9.90;99.90;;;;;;5019323;28;20049;-85
2022/03/16 10:03:38;;;;;;;19.90;10.43;;;10.00;99.90;;;;;;5053575;28;20044;-84
2022/03/16 10:06:07;;;;;;;28.45;13.30;;;10.10;99.90;;;;;;5052437;28;20053;-82
2022/03/16 10:08:35;;;;;;;25.20;13.10;;;10.20;99.90;;;;;;5054076;28;20132;-81
2022/03/16 10:13:57;;;;;;;23.17;12.55;;;10.50;99.90;;;;;;5052826;28;20049;-81
2022/03/16 10:16:24;;;;;;;22.23;12.05;;;10.60;99.90;;;;;;5035324;28;20681;-81
2022/03/16 10:18:57;;;;;;;24.67;12.30;;;10.70;99.90;;;;;;5053099;28;20401;-81
2022/03/16 10:21:24;;;;;;;25.30;13.50;;;10.90;99.90;;;;;;5052411;28;20588;-79
2022/03/16 10:23:50;;;;;;;23.38;12.88;;;11.00;99.90;;;;;;5051957;28;20132;-79
2022/03/16 10:26:18;;;;;;;23.17;13.38;;;11.10;99.90;;;;;;5035894;28;20437;-79
2022/03/16 10:28:46;;;;;;;23.77;11.50;;;11.20;99.90;;;;;;5054502;28;20045;-79
2022/03/16 10:31:14;;;;;;;21.00;11.18;;;11.30;99.90;;;;;;5044212;28;20504;-79
2022/03/16 10:33:53;;;;;;;22.75;11.45;;;11.30;99.90;;;;;;5052592;28;20052;-79
2022/03/16 10:36:25;;;;;;;22.33;11.57;;;11.30;99.90;;;;;;5052287;28;20041;-79
2022/03/16 10:38:53;;;;;;;25.77;12.43;;;11.50;99.90;;;;;;5052288;28;20546;-79
2022/03/16 10:47:17;;;;;;;20.33;11.27;;;11.70;99.90;;;;;;5052241;28;20157;-81
2022/03/16 10:49:44;;;;;;;19.50;10.57;;;11.70;99.90;;;;;;5043158;28;20131;-79
2022/03/16 10:52:15;;;;;;;20.52;10.65;;;11.80;99.90;;;;;;5038832;28;20075;-80
2022/03/16 10:54:42;;;;;;;21.85;10.63;;;11.80;99.90;;;;;;5051871;28;20052;-78
2022/03/16 10:57:10;;;;;;;19.35;9.70;;;11.90;99.90;;;;;;5058849;28;20073;-82
2022/03/16 10:59:37;;;;;;;19.48;9.35;;;12.00;99.90;;;;;;5046372;28;20478;-81
2022/03/16 11:02:05;;;;;;;20.92;10.55;;;12.10;99.90;;;;;;5067080;28;20055;-82
2022/03/16 11:04:32;;;;;;;18.40;10.13;;;12.20;99.90;;;;;;5049486;28;20036;-82
2022/03/16 11:07:00;;;;;;;20.27;10.32;;;12.30;99.90;;;;;;5065764;28;20158;-81
2022/03/16 11:09:26;;;;;;;20.83;10.98;;;12.40;99.90;;;;;;5056821;28;20053;-81
2022/03/16 11:14:38;;;;;;;19.98;9.40;;;12.40;99.90;;;;;;5071286;28;20137;-81
2022/03/16 11:17:04;;;;;;;21.90;11.65;;;12.40;99.90;;;;;;5063634;28;20053;-79
2022/03/16 11:19:31;;;;;;;21.30;10.73;;;12.40;99.90;;;;;;5070706;28;20711;-79
2022/03/16 11:22:17;;;;;;;21.05;10.02;;;12.40;99.90;;;;;;5055121;28;20063;-79
2022/03/16 11:25:18;;;;;;;23.67;11.38;;;12.50;99.90;;;;;;5069961;28;20311;-79
2022/03/16 11:27:50;;;;;;;20.88;10.23;;;12.60;99.90;;;;;;5028977;28;20679;-80
2022/03/16 11:30:41;;;;;;;25.02;11.02;;;12.70;99.90;;;;;;5058788;28;20055;-80
2022/03/16 11:33:12;;;;;;;22.40;11.10;;;12.70;99.90;;;;;;5037698;28;20114;-81
2022/03/16 11:35:50;;;;;;;20.65;10.98;;;12.80;99.90;;;;;;5059133;28;20044;-79
2022/03/16 11:38:17;;;;;;;22.50;11.25;;;12.90;99.90;;;;;;5064599;28;20127;-81
2022/03/16 11:40:46;;;;;;;21.38;11.30;;;13.10;99.90;;;;;;5040026;28;20057;-81
2022/03/16 11:43:12;;;;;;;21.23;11.02;;;13.30;99.90;;;;;;5057302;28;20091;-82
2022/03/16 11:45:38;;;;;;;;;;;13.40;99.90;;;;;;5067605;28;20094;-80
2022/03/16 11:48:26;;;;;;;19.92;10.98;;;13.70;99.90;;;;;;5046769;28;19920;-81
2022/03/16 11:51:23;;;;;;;20.30;10.13;;;13.90;99.90;;;;;;5048089;28;20052;-81
2022/03/16 11:56:23;;;;;;;22.25;12.05;;;14.10;99.90;;;;;;5070065;28;20056;-82
2022/03/16 11:58:53;;;;;;;20.92;12.25;;;14.30;99.90;;;;;;5057568;28;20063;-80
2022/03/16 12:01:29;;;;;;;22.23;11.90;;;14.50;99.90;;;;;;5033668;28;20102;-80
2022/03/16 12:04:13;;;;;;;22.05;12.27;;;14.70;99.90;;;;;;5036713;28;20044;-80
2022/03/16 12:07:05;;;;;;;24.08;12.10;;;15.00;99.90;;;;;;5051223;28;20107;-80
2022/03/16 12:09:54;;;;;;;23.58;12.27;;;15.20;99.70;;;;;;5064345;28;20049;-80
2022/03/16 12:15:34;;;;;;;22.90;11.85;;;15.60;97.70;;;;;;5054316;28;20048;-81
2022/03/16 12:18:00;;;;;;;19.45;11.48;;;15.80;92.60;;;;;;5045731;28;20049;-82
2022/03/16 12:20:34;;;;;;;;;;;16.00;93.70;;;;;;5046687;28;20055;-81
2022/03/16 12:23:07;;;;;;;20.77;12.30;;;16.10;95.30;;;;;;5034754;28;20270;-81
2022/03/16 12:25:34;;;;;;;21.48;11.15;;;16.20;94.80;;;;;;5048755;28;20116;-81
2022/03/16 12:30:54;;;;;;;21.90;12.20;;;16.60;93.60;;;;;;5055925;28;20131;-83
2022/03/16 12:33:45;;;;;;;22.40;13.10;;;16.80;93.30;;;;;;5055655;28;20466;-84
2022/03/16 12:36:13;;;;;;;20.48;12.07;;;17.10;90.80;;;;;;5036537;28;20083;-84
2022/03/16 12:38:47;;;;;;;24.88;12.70;;;17.20;89.90;;;;;;5060739;28;20044;-84
2022/03/16 12:44:02;;;;;;;23.85;13.18;;;17.60;85.50;;;;;;5062094;28;20149;-83
2022/03/16 12:46:40;;;;;;;21.50;12.52;;;17.60;84.00;;;;;;5056078;28;20532;-83
2022/03/16 12:49:11;;;;;;;15.82;10.50;;;17.80;78.80;;;;;;5060518;28;20089;-84
2022/03/16 12:51:43;;;;;;;19.23;11.30;;;17.90;76.00;;;;;;5055301;28;20302;-83
2022/03/16 12:54:11;;;;;;;18.25;10.63;;;17.90;70.20;;;;;;5060279;28;20063;-84
2022/03/16 12:56:44;;;;;;;19.55;10.65;;;17.90;70.10;;;;;;5058430;28;20056;-88
2022/03/16 12:59:11;;;;;;;18.33;11.23;;;17.90;67.60;;;;;;5058734;28;20619;-84
2022/03/16 13:01:39;;;;;;;17.67;10.85;;;17.90;66.60;;;;;;5054792;28;20549;-82